sensor_id;sensor_type;location;lat;lon;timestamp;temperature;humidity
13998;DHT22;7074;51.508;7.018;2023-07-02T00:00:12;20.10;99.90
13998;DHT22;7074;51.508;7.018;2023-07-02T00:02:39;20.10;99.90
13998;DHT22;7074;51.508;7.018;2023-07-02T00:05:07;20.10;99.90
13998;DHT22;7074;51.508;7.018;2023-07-02T00:07:34;20.10;99.90
13998;DHT22;7074;51.508;7.018;2023-07-02T00:10:03;20.10;99.90
13998;DHT22;7074;51.508;7.018;2023-07-02T00:12:31;20.10;99.90
13998;DHT22;7074;51.508;7.018;2023-07-02T00:14:58;20.00;99.90
13998;DHT22;7074;51.508;7.018;2023-07-02T00:17:26;20.10;99.90
13998;DHT22;7074;51.508;7.018;2023-07-02T00:19:54;20.10;99.90
13998;DHT22;7074;51.508;7.018;2023-07-02T00:22:21;20.00;99.90
13998;DHT22;7074;51.508;7.018;2023-07-02T00:24:49;20.00;99.90
13998;DHT22;7074;51.508;7.018;2023-07-02T00:27:17;20.00;99.90
13998;DHT22;7074;51.508;7.018;2023-07-02T00:29:44;20.00;99.90
13998;DHT22;7074;51.508;7.018;2023-07-02T00:32:11;20.00;99.90
13998;DHT22;7074;51.508;7.018;2023-07-02T00:34:40;20.10;99.90
13998;DHT22;7074;51.508;7.018;2023-07-02T00:37:07;20.00;99.90
13998;DHT22;7074;51.508;7.018;2023-07-02T00:39:34;20.00;99.90
13998;DHT22;7074;51.508;7.018;2023-07-02T00:42:02;19.90;99.90
13998;DHT22;7074;51.508;7.018;2023-07-02T00:44:32;20.00;99.90
13998;DHT22;7074;51.508;7.018;2023-07-02T00:47:01;20.00;99.90
13998;DHT22;7074;51.508;7.018;2023-07-02T00:49:28;20.00;99.90
13998;DHT22;7074;51.508;7.018;2023-07-02T00:51:57;20.00;99.90
13998;DHT22;7074;51.508;7.018;2023-07-02T00:54:24;20.00;99.90
13998;DHT22;7074;51.508;7.018;2023-07-02T00:56:54;19.90;99.90
13998;DHT22;7074;51.508;7.018;2023-07-02T00:59:22;19.90;99.90
13998;DHT22;7074;51.508;7.018;2023-07-02T01:01:49;19.90;99.90
13998;DHT22;7074;51.508;7.018;2023-07-02T01:04:18;19.90;99.90
13998;DHT22;7074;51.508;7.018;2023-07-02T01:06:46;19.90;99.90
13998;DHT22;7074;51.508;7.018;2023-07-02T01:09:15;19.90;99.90
13998;DHT22;7074;51.508;7.018;2023-07-02T01:11:44;19.90;99.90
13998;DHT22;7074;51.508;7.018;2023-07-02T01:14:14;19.90;99.90
13998;DHT22;7074;51.508;7.018;2023-07-02T01:16:43;19.80;99.90
13998;DHT22;7074;51.508;7.018;2023-07-02T01:19:12;19.80;99.90
13998;DHT22;7074;51.508;7.018;2023-07-02T01:21:41;19.70;99.90
13998;DHT22;7074;51.508;7.018;2023-07-02T01:24:09;19.60;99.90
13998;DHT22;7074;51.508;7.018;2023-07-02T01:26:36;19.60;99.90
13998;DHT22;7074;51.508;7.018;2023-07-02T01:29:14;19.60;99.90
13998;DHT22;7074;51.508;7.018;2023-07-02T01:31:41;19.40;99.90
13998;DHT22;7074;51.508;7.018;2023-07-02T01:34:08;19.50;99.90
13998;DHT22;7074;51.508;7.018;2023-07-02T01:36:36;19.50;99.90
13998;DHT22;7074;51.508;7.018;2023-07-02T01:39:05;19.50;99.90
13998;DHT22;7074;51.508;7.018;2023-07-02T01:41:38;19.30;99.90
13998;DHT22;7074;51.508;7.018;2023-07-02T01:44:08;19.40;99.90
13998;DHT22;7074;51.508;7.018;2023-07-02T01:46:36;19.40;99.90
13998;DHT22;7074;51.508;7.018;2023-07-02T01:49:03;19.30;99.90
13998;DHT22;7074;51.508;7.018;2023-07-02T01:51:30;19.40;99.90
13998;DHT22;7074;51.508;7.018;2023-07-02T01:53:57;19.40;99.90
13998;DHT22;7074;51.508;7.018;2023-07-02T01:56:26;19.30;99.90
13998;DHT22;7074;51.508;7.018;2023-07-02T01:58:54;19.30;99.90
13998;DHT22;7074;51.508;7.018;2023-07-02T02:01:21;19.40;99.90
13998;DHT22;7074;51.508;7.018;2023-07-02T02:03:49;19.40;99.90
13998;DHT22;7074;51.508;7.018;2023-07-02T02:06:16;19.40;99.90
13998;DHT22;7074;51.508;7.018;2023-07-02T02:08:45;19.50;99.90
13998;DHT22;7074;51.508;7.018;2023-07-02T02:11:12;19.40;99.90
13998;DHT22;7074;51.508;7.018;2023-07-02T02:13:41;19.40;99.90
13998;DHT22;7074;51.508;7.018;2023-07-02T02:16:08;19.40;99.90
13998;DHT22;7074;51.508;7.018;2023-07-02T02:18:35;19.40;99.90
13998;DHT22;7074;51.508;7.018;2023-07-02T02:21:03;19.30;99.90
13998;DHT22;7074;51.508;7.018;2023-07-02T02:23:30;19.40;99.90
13998;DHT22;7074;51.508;7.018;2023-07-02T02:25:58;19.40;99.90
13998;DHT22;7074;51.508;7.018;2023-07-02T02:28:25;19.40;99.90
13998;DHT22;7074;51.508;7.018;2023-07-02T02:30:54;19.40;99.90
13998;DHT22;7074;51.508;7.018;2023-07-02T02:33:22;19.40;99.90
13998;DHT22;7074;51.508;7.018;2023-07-02T02:35:50;19.40;99.90
13998;DHT22;7074;51.508;7.018;2023-07-02T02:38:18;19.40;99.90
13998;DHT22;7074;51.508;7.018;2023-07-02T02:40:45;19.40;99.90
13998;DHT22;7074;51.508;7.018;2023-07-02T02:43:16;19.30;99.90
13998;DHT22;7074;51.508;7.018;2023-07-02T02:45:45;19.30;99.90
13998;DHT22;7074;51.508;7.018;2023-07-02T02:48:14;19.30;99.90
13998;DHT22;7074;51.508;7.018;2023-07-02T02:50:41;19.30;99.90
13998;DHT22;7074;51.508;7.018;2023-07-02T02:53:10;19.40;99.90
13998;DHT22;7074;51.508;7.018;2023-07-02T02:55:37;19.30;99.90
13998;DHT22;7074;51.508;7.018;2023-07-02T02:58:04;19.30;99.90
13998;DHT22;7074;51.508;7.018;2023-07-02T03:00:32;19.30;99.90
13998;DHT22;7074;51.508;7.018;2023-07-02T03:02:59;19.30;99.90
13998;DHT22;7074;51.508;7.018;2023-07-02T03:05:28;19.30;99.90
13998;DHT22;7074;51.508;7.018;2023-07-02T03:07:55;19.30;99.90
13998;DHT22;7074;51.508;7.018;2023-07-02T03:10:22;19.30;99.90
13998;DHT22;7074;51.508;7.018;2023-07-02T03:12:50;19.20;99.90
13998;DHT22;7074;51.508;7.018;2023-07-02T03:15:17;19.30;99.90
13998;DHT22;7074;51.508;7.018;2023-07-02T03:17:44;19.20;99.90
13998;DHT22;7074;51.508;7.018;2023-07-02T03:20:12;19.20;99.90
13998;DHT22;7074;51.508;7.018;2023-07-02T03:22:40;19.10;99.90
13998;DHT22;7074;51.508;7.018;2023-07-02T03:25:08;19.20;99.90
13998;DHT22;7074;51.508;7.018;2023-07-02T03:27:35;19.20;99.90
13998;DHT22;7074;51.508;7.018;2023-07-02T03:30:03;19.20;99.90
13998;DHT22;7074;51.508;7.018;2023-07-02T03:32:30;19.20;99.90
13998;DHT22;7074;51.508;7.018;2023-07-02T03:34:58;19.20;99.90
13998;DHT22;7074;51.508;7.018;2023-07-02T03:37:25;19.20;99.90
13998;DHT22;7074;51.508;7.018;2023-07-02T03:39:54;19.20;99.90
13998;DHT22;7074;51.508;7.018;2023-07-02T03:42:21;19.20;99.90
13998;DHT22;7074;51.508;7.018;2023-07-02T03:44:48;19.20;99.90
13998;DHT22;7074;51.508;7.018;2023-07-02T03:47:16;19.20;99.90
13998;DHT22;7074;51.508;7.018;2023-07-02T03:49:45;19.20;99.90
13998;DHT22;7074;51.508;7.018;2023-07-02T03:52:12;19.20;99.90
13998;DHT22;7074;51.508;7.018;2023-07-02T03:54:39;19.20;99.90
13998;DHT22;7074;51.508;7.018;2023-07-02T03:57:08;19.20;99.90
13998;DHT22;7074;51.508;7.018;2023-07-02T03:59:35;19.20;99.90
13998;DHT22;7074;51.508;7.018;2023-07-02T04:02:03;19.20;99.90
13998;DHT22;7074;51.508;7.018;2023-07-02T04:04:34;19.10;99.90
13998;DHT22;7074;51.508;7.018;2023-07-02T04:07:01;19.20;99.90
13998;DHT22;7074;51.508;7.018;2023-07-02T04:09:29;19.20;99.90
13998;DHT22;7074;51.508;7.018;2023-07-02T04:11:58;19.20;99.90
13998;DHT22;7074;51.508;7.018;2023-07-02T04:14:27;19.20;99.90
13998;DHT22;7074;51.508;7.018;2023-07-02T04:16:54;19.20;99.90
13998;DHT22;7074;51.508;7.018;2023-07-02T04:19:22;19.20;99.90
13998;DHT22;7074;51.508;7.018;2023-07-02T04:21:49;19.20;99.90
13998;DHT22;7074;51.508;7.018;2023-07-02T04:24:16;19.20;99.90
13998;DHT22;7074;51.508;7.018;2023-07-02T04:26:44;19.20;99.90
13998;DHT22;7074;51.508;7.018;2023-07-02T04:29:11;19.30;99.90
13998;DHT22;7074;51.508;7.018;2023-07-02T04:31:40;19.20;99.90
13998;DHT22;7074;51.508;7.018;2023-07-02T04:34:07;19.10;99.90
13998;DHT22;7074;51.508;7.018;2023-07-02T04:36:34;19.10;99.90
13998;DHT22;7074;51.508;7.018;2023-07-02T04:39:02;19.10;99.90
13998;DHT22;7074;51.508;7.018;2023-07-02T04:41:29;19.10;99.90
13998;DHT22;7074;51.508;7.018;2023-07-02T04:43:56;19.20;99.90
13998;DHT22;7074;51.508;7.018;2023-07-02T04:46:23;19.20;99.90
13998;DHT22;7074;51.508;7.018;2023-07-02T04:48:52;19.20;99.90
13998;DHT22;7074;51.508;7.018;2023-07-02T04:51:20;19.20;99.90
13998;DHT22;7074;51.508;7.018;2023-07-02T04:53:47;19.20;99.90
13998;DHT22;7074;51.508;7.018;2023-07-02T04:56:15;19.20;99.90
13998;DHT22;7074;51.508;7.018;2023-07-02T04:58:42;19.30;99.90
13998;DHT22;7074;51.508;7.018;2023-07-02T05:01:09;19.20;99.90
13998;DHT22;7074;51.508;7.018;2023-07-02T05:03:37;19.30;99.90
13998;DHT22;7074;51.508;7.018;2023-07-02T05:06:06;19.40;99.90
13998;DHT22;7074;51.508;7.018;2023-07-02T05:08:33;19.40;99.90
13998;DHT22;7074;51.508;7.018;2023-07-02T05:11:02;19.30;99.90
13998;DHT22;7074;51.508;7.018;2023-07-02T05:13:29;19.40;99.90
13998;DHT22;7074;51.508;7.018;2023-07-02T05:15:56;19.40;99.90
13998;DHT22;7074;51.508;7.018;2023-07-02T05:18:23;19.40;99.90
13998;DHT22;7074;51.508;7.018;2023-07-02T05:20:50;19.50;99.90
13998;DHT22;7074;51.508;7.018;2023-07-02T05:23:19;19.40;99.90
13998;DHT22;7074;51.508;7.018;2023-07-02T05:25:47;19.50;99.90
13998;DHT22;7074;51.508;7.018;2023-07-02T05:28:14;19.60;99.90
13998;DHT22;7074;51.508;7.018;2023-07-02T05:30:41;19.60;99.90
13998;DHT22;7074;51.508;7.018;2023-07-02T05:33:08;19.60;99.90
13998;DHT22;7074;51.508;7.018;2023-07-02T05:35:36;19.60;99.90
13998;DHT22;7074;51.508;7.018;2023-07-02T05:38:03;19.60;99.90
13998;DHT22;7074;51.508;7.018;2023-07-02T05:40:32;19.50;99.90
13998;DHT22;7074;51.508;7.018;2023-07-02T05:42:59;19.60;99.90
13998;DHT22;7074;51.508;7.018;2023-07-02T05:45:26;19.70;99.90
13998;DHT22;7074;51.508;7.018;2023-07-02T05:47:55;19.80;99.90
13998;DHT22;7074;51.508;7.018;2023-07-02T05:50:22;19.80;99.90
13998;DHT22;7074;51.508;7.018;2023-07-02T05:52:50;19.90;99.90
13998;DHT22;7074;51.508;7.018;2023-07-02T05:55:17;19.90;99.90
13998;DHT22;7074;51.508;7.018;2023-07-02T05:57:46;20.00;99.90
13998;DHT22;7074;51.508;7.018;2023-07-02T06:00:14;20.00;99.90
13998;DHT22;7074;51.508;7.018;2023-07-02T06:02:45;20.10;99.90
13998;DHT22;7074;51.508;7.018;2023-07-02T06:05:16;20.10;99.90
13998;DHT22;7074;51.508;7.018;2023-07-02T06:07:43;20.20;99.90
13998;DHT22;7074;51.508;7.018;2023-07-02T06:10:10;20.20;99.90
13998;DHT22;7074;51.508;7.018;2023-07-02T06:12:37;20.20;99.90
13998;DHT22;7074;51.508;7.018;2023-07-02T06:15:07;20.10;99.90
13998;DHT22;7074;51.508;7.018;2023-07-02T06:17:35;20.10;99.90
13998;DHT22;7074;51.508;7.018;2023-07-02T06:20:02;20.00;99.90
13998;DHT22;7074;51.508;7.018;2023-07-02T06:22:31;20.10;99.90
13998;DHT22;7074;51.508;7.018;2023-07-02T06:24:58;20.20;99.90
13998;DHT22;7074;51.508;7.018;2023-07-02T06:27:25;20.40;99.90
13998;DHT22;7074;51.508;7.018;2023-07-02T06:29:53;20.50;99.90
13998;DHT22;7074;51.508;7.018;2023-07-02T06:32:21;20.40;99.90
13998;DHT22;7074;51.508;7.018;2023-07-02T06:34:48;20.50;99.90
13998;DHT22;7074;51.508;7.018;2023-07-02T06:37:16;20.70;99.90
13998;DHT22;7074;51.508;7.018;2023-07-02T06:39:43;20.70;99.90
13998;DHT22;7074;51.508;7.018;2023-07-02T06:42:10;20.80;99.90
13998;DHT22;7074;51.508;7.018;2023-07-02T06:44:39;20.70;99.90
13998;DHT22;7074;51.508;7.018;2023-07-02T06:47:06;20.80;99.90
13998;DHT22;7074;51.508;7.018;2023-07-02T06:49:35;20.90;99.90
13998;DHT22;7074;51.508;7.018;2023-07-02T06:52:03;21.10;99.90
13998;DHT22;7074;51.508;7.018;2023-07-02T06:54:33;21.20;99.90
13998;DHT22;7074;51.508;7.018;2023-07-02T06:57:00;21.30;99.90
13998;DHT22;7074;51.508;7.018;2023-07-02T06:59:28;21.30;99.90
13998;DHT22;7074;51.508;7.018;2023-07-02T07:01:55;21.20;99.90
13998;DHT22;7074;51.508;7.018;2023-07-02T07:04:22;21.30;99.90
13998;DHT22;7074;51.508;7.018;2023-07-02T07:06:51;21.20;99.90
13998;DHT22;7074;51.508;7.018;2023-07-02T07:09:18;21.40;99.90
13998;DHT22;7074;51.508;7.018;2023-07-02T07:11:45;21.50;99.90
13998;DHT22;7074;51.508;7.018;2023-07-02T07:14:13;21.40;99.90
13998;DHT22;7074;51.508;7.018;2023-07-02T07:16:40;21.50;99.90
13998;DHT22;7074;51.508;7.018;2023-07-02T07:19:07;21.50;99.90
13998;DHT22;7074;51.508;7.018;2023-07-02T07:21:35;21.50;99.90
13998;DHT22;7074;51.508;7.018;2023-07-02T07:24:05;21.50;99.90
13998;DHT22;7074;51.508;7.018;2023-07-02T07:26:32;21.60;99.90
13998;DHT22;7074;51.508;7.018;2023-07-02T07:29:00;21.70;99.90
13998;DHT22;7074;51.508;7.018;2023-07-02T07:31:27;21.70;99.90
13998;DHT22;7074;51.508;7.018;2023-07-02T07:33:54;21.80;99.70
13998;DHT22;7074;51.508;7.018;2023-07-02T07:36:22;21.90;98.40
13998;DHT22;7074;51.508;7.018;2023-07-02T07:38:49;22.00;98.40
13998;DHT22;7074;51.508;7.018;2023-07-02T07:41:18;21.90;98.30
13998;DHT22;7074;51.508;7.018;2023-07-02T07:43:46;22.00;97.20
13998;DHT22;7074;51.508;7.018;2023-07-02T07:46:13;22.00;97.00
13998;DHT22;7074;51.508;7.018;2023-07-02T07:48:40;21.70;95.30
13998;DHT22;7074;51.508;7.018;2023-07-02T07:51:08;21.70;95.10
13998;DHT22;7074;51.508;7.018;2023-07-02T07:53:38;21.60;95.50
13998;DHT22;7074;51.508;7.018;2023-07-02T07:56:06;21.70;95.40
13998;DHT22;7074;51.508;7.018;2023-07-02T07:58:35;21.60;95.40
13998;DHT22;7074;51.508;7.018;2023-07-02T08:01:02;21.60;95.60
13998;DHT22;7074;51.508;7.018;2023-07-02T08:03:30;21.60;94.70
13998;DHT22;7074;51.508;7.018;2023-07-02T08:05:57;21.60;94.60
13998;DHT22;7074;51.508;7.018;2023-07-02T08:08:25;21.70;94.60
13998;DHT22;7074;51.508;7.018;2023-07-02T08:10:52;21.70;94.50
13998;DHT22;7074;51.508;7.018;2023-07-02T08:13:19;21.80;94.40
13998;DHT22;7074;51.508;7.018;2023-07-02T08:15:48;21.90;94.90
13998;DHT22;7074;51.508;7.018;2023-07-02T08:18:15;21.90;94.70
13998;DHT22;7074;51.508;7.018;2023-07-02T08:20:43;21.90;95.10
13998;DHT22;7074;51.508;7.018;2023-07-02T08:23:10;22.00;94.70
13998;DHT22;7074;51.508;7.018;2023-07-02T08:25:38;22.00;94.40
13998;DHT22;7074;51.508;7.018;2023-07-02T08:28:05;22.00;94.20
13998;DHT22;7074;51.508;7.018;2023-07-02T08:30:33;21.90;93.30
13998;DHT22;7074;51.508;7.018;2023-07-02T08:33:02;22.00;91.40
13998;DHT22;7074;51.508;7.018;2023-07-02T08:35:29;21.90;90.50
13998;DHT22;7074;51.508;7.018;2023-07-02T08:37:56;21.70;89.50
13998;DHT22;7074;51.508;7.018;2023-07-02T08:40:24;21.80;89.50
13998;DHT22;7074;51.508;7.018;2023-07-02T08:42:51;21.80;89.00
13998;DHT22;7074;51.508;7.018;2023-07-02T08:45:20;21.80;88.60
13998;DHT22;7074;51.508;7.018;2023-07-02T08:47:50;21.90;88.30
13998;DHT22;7074;51.508;7.018;2023-07-02T08:50:21;21.80;88.70
13998;DHT22;7074;51.508;7.018;2023-07-02T08:52:48;21.80;88.70
13998;DHT22;7074;51.508;7.018;2023-07-02T08:55:16;21.90;88.50
13998;DHT22;7074;51.508;7.018;2023-07-02T08:57:49;22.10;90.50
13998;DHT22;7074;51.508;7.018;2023-07-02T09:00:17;22.20;89.80
13998;DHT22;7074;51.508;7.018;2023-07-02T09:02:45;22.30;88.20
13998;DHT22;7074;51.508;7.018;2023-07-02T09:05:13;22.40;88.60
13998;DHT22;7074;51.508;7.018;2023-07-02T09:07:45;22.60;86.50
13998;DHT22;7074;51.508;7.018;2023-07-02T09:10:25;22.40;84.60
13998;DHT22;7074;51.508;7.018;2023-07-02T09:13:03;22.50;85.00
13998;DHT22;7074;51.508;7.018;2023-07-02T09:15:36;22.60;84.80
13998;DHT22;7074;51.508;7.018;2023-07-02T09:18:15;22.60;81.70
13998;DHT22;7074;51.508;7.018;2023-07-02T09:20:42;22.90;83.40
13998;DHT22;7074;51.508;7.018;2023-07-02T09:23:11;23.10;82.90
13998;DHT22;7074;51.508;7.018;2023-07-02T09:25:40;23.00;82.70
13998;DHT22;7074;51.508;7.018;2023-07-02T09:28:15;22.90;79.80
13998;DHT22;7074;51.508;7.018;2023-07-02T09:30:50;22.80;81.20
13998;DHT22;7074;51.508;7.018;2023-07-02T09:33:17;23.10;81.40
13998;DHT22;7074;51.508;7.018;2023-07-02T09:35:45;23.20;80.40
13998;DHT22;7074;51.508;7.018;2023-07-02T09:38:14;23.20;81.70
13998;DHT22;7074;51.508;7.018;2023-07-02T09:40:46;23.30;81.50
13998;DHT22;7074;51.508;7.018;2023-07-02T09:43:14;23.40;82.90
13998;DHT22;7074;51.508;7.018;2023-07-02T09:45:43;23.60;82.30
13998;DHT22;7074;51.508;7.018;2023-07-02T09:48:13;23.60;80.60
13998;DHT22;7074;51.508;7.018;2023-07-02T09:50:42;23.40;79.70
13998;DHT22;7074;51.508;7.018;2023-07-02T09:53:11;23.40;79.00
13998;DHT22;7074;51.508;7.018;2023-07-02T09:55:42;23.20;80.80
13998;DHT22;7074;51.508;7.018;2023-07-02T09:58:10;23.00;82.90
13998;DHT22;7074;51.508;7.018;2023-07-02T10:00:39;23.00;82.10
13998;DHT22;7074;51.508;7.018;2023-07-02T10:03:06;22.80;78.60
13998;DHT22;7074;51.508;7.018;2023-07-02T10:05:34;22.70;78.40
13998;DHT22;7074;51.508;7.018;2023-07-02T10:08:12;22.50;77.10
13998;DHT22;7074;51.508;7.018;2023-07-02T10:10:42;22.50;78.20
13998;DHT22;7074;51.508;7.018;2023-07-02T10:13:09;22.40;76.50
13998;DHT22;7074;51.508;7.018;2023-07-02T10:15:37;22.40;77.70
13998;DHT22;7074;51.508;7.018;2023-07-02T10:18:06;22.30;76.60
13998;DHT22;7074;51.508;7.018;2023-07-02T10:20:34;22.20;76.70
13998;DHT22;7074;51.508;7.018;2023-07-02T10:23:03;22.30;77.10
13998;DHT22;7074;51.508;7.018;2023-07-02T10:25:34;22.40;78.70
13998;DHT22;7074;51.508;7.018;2023-07-02T10:28:14;22.30;79.30
13998;DHT22;7074;51.508;7.018;2023-07-02T10:30:42;22.60;79.30
13998;DHT22;7074;51.508;7.018;2023-07-02T10:33:10;22.70;77.20
13998;DHT22;7074;51.508;7.018;2023-07-02T10:35:38;23.00;77.50
13998;DHT22;7074;51.508;7.018;2023-07-02T10:38:07;23.10;76.40
13998;DHT22;7074;51.508;7.018;2023-07-02T10:40:41;23.30;75.10
13998;DHT22;7074;51.508;7.018;2023-07-02T10:43:30;23.40;76.30
13998;DHT22;7074;51.508;7.018;2023-07-02T10:45:58;23.70;75.70
13998;DHT22;7074;51.508;7.018;2023-07-02T10:48:27;23.80;74.50
13998;DHT22;7074;51.508;7.018;2023-07-02T10:50:54;23.70;74.00
13998;DHT22;7074;51.508;7.018;2023-07-02T10:53:21;23.60;74.40
13998;DHT22;7074;51.508;7.018;2023-07-02T10:55:53;23.30;72.60
13998;DHT22;7074;51.508;7.018;2023-07-02T10:58:21;23.20;72.20
13998;DHT22;7074;51.508;7.018;2023-07-02T11:00:51;23.10;73.00
13998;DHT22;7074;51.508;7.018;2023-07-02T11:03:19;23.10;70.30
13998;DHT22;7074;51.508;7.018;2023-07-02T11:05:48;23.00;70.40
13998;DHT22;7074;51.508;7.018;2023-07-02T11:08:15;23.00;69.70
13998;DHT22;7074;51.508;7.018;2023-07-02T11:10:43;23.00;69.30
13998;DHT22;7074;51.508;7.018;2023-07-02T11:13:11;22.80;69.00
13998;DHT22;7074;51.508;7.018;2023-07-02T11:15:39;22.80;70.40
13998;DHT22;7074;51.508;7.018;2023-07-02T11:18:13;22.80;70.40
13998;DHT22;7074;51.508;7.018;2023-07-02T11:20:42;22.80;69.10
13998;DHT22;7074;51.508;7.018;2023-07-02T11:23:19;22.70;70.00
13998;DHT22;7074;51.508;7.018;2023-07-02T11:25:57;23.00;70.60
13998;DHT22;7074;51.508;7.018;2023-07-02T11:28:25;23.20;70.20
13998;DHT22;7074;51.508;7.018;2023-07-02T11:30:55;23.20;69.60
13998;DHT22;7074;51.508;7.018;2023-07-02T11:33:34;23.30;69.40
13998;DHT22;7074;51.508;7.018;2023-07-02T11:36:02;23.50;69.70
13998;DHT22;7074;51.508;7.018;2023-07-02T11:38:29;23.70;70.10
13998;DHT22;7074;51.508;7.018;2023-07-02T11:40:57;23.90;68.10
13998;DHT22;7074;51.508;7.018;2023-07-02T11:43:33;23.70;65.70
13998;DHT22;7074;51.508;7.018;2023-07-02T11:46:01;23.90;65.60
13998;DHT22;7074;51.508;7.018;2023-07-02T11:48:28;23.70;66.30
13998;DHT22;7074;51.508;7.018;2023-07-02T11:50:57;23.90;67.00
13998;DHT22;7074;51.508;7.018;2023-07-02T11:53:24;23.90;65.60
13998;DHT22;7074;51.508;7.018;2023-07-02T11:55:52;24.00;64.40
13998;DHT22;7074;51.508;7.018;2023-07-02T11:58:19;24.20;64.60
13998;DHT22;7074;51.508;7.018;2023-07-02T12:00:46;24.60;63.40
13998;DHT22;7074;51.508;7.018;2023-07-02T12:03:14;24.40;61.70
13998;DHT22;7074;51.508;7.018;2023-07-02T12:05:43;24.40;61.50
13998;DHT22;7074;51.508;7.018;2023-07-02T12:08:27;24.30;61.20
13998;DHT22;7074;51.508;7.018;2023-07-02T12:10:54;24.30;61.80
13998;DHT22;7074;51.508;7.018;2023-07-02T12:13:22;24.60;62.50
13998;DHT22;7074;51.508;7.018;2023-07-02T12:15:49;24.50;62.20
13998;DHT22;7074;51.508;7.018;2023-07-02T12:18:17;24.30;62.90
13998;DHT22;7074;51.508;7.018;2023-07-02T12:20:44;24.60;64.00
13998;DHT22;7074;51.508;7.018;2023-07-02T12:23:12;24.50;62.50
13998;DHT22;7074;51.508;7.018;2023-07-02T12:25:44;24.80;62.40
13998;DHT22;7074;51.508;7.018;2023-07-02T12:28:11;25.10;61.80
13998;DHT22;7074;51.508;7.018;2023-07-02T12:30:41;24.80;60.80
13998;DHT22;7074;51.508;7.018;2023-07-02T12:33:08;24.90;61.90
13998;DHT22;7074;51.508;7.018;2023-07-02T12:35:36;24.80;61.40
13998;DHT22;7074;51.508;7.018;2023-07-02T12:38:03;24.60;62.10
13998;DHT22;7074;51.508;7.018;2023-07-02T12:40:33;24.50;62.60
13998;DHT22;7074;51.508;7.018;2023-07-02T12:43:02;24.40;62.60
13998;DHT22;7074;51.508;7.018;2023-07-02T12:45:29;24.40;62.60
13998;DHT22;7074;51.508;7.018;2023-07-02T12:47:57;24.40;63.50
13998;DHT22;7074;51.508;7.018;2023-07-02T12:50:25;24.50;64.30
13998;DHT22;7074;51.508;7.018;2023-07-02T12:52:53;24.60;64.00
13998;DHT22;7074;51.508;7.018;2023-07-02T12:55:20;24.80;62.80
13998;DHT22;7074;51.508;7.018;2023-07-02T12:57:48;24.80;61.80
13998;DHT22;7074;51.508;7.018;2023-07-02T13:08:11;25.50;61.90
13998;DHT22;7074;51.508;7.018;2023-07-02T13:11:09;25.70;60.30
13998;DHT22;7074;51.508;7.018;2023-07-02T13:13:36;26.00;60.10
13998;DHT22;7074;51.508;7.018;2023-07-02T13:16:04;25.90;59.80
13998;DHT22;7074;51.508;7.018;2023-07-02T13:18:31;25.70;59.00
13998;DHT22;7074;51.508;7.018;2023-07-02T13:20:59;25.60;59.70
13998;DHT22;7074;51.508;7.018;2023-07-02T13:23:28;25.60;58.80
13998;DHT22;7074;51.508;7.018;2023-07-02T13:25:55;25.60;59.20
13998;DHT22;7074;51.508;7.018;2023-07-02T13:28:23;25.60;59.50
13998;DHT22;7074;51.508;7.018;2023-07-02T13:30:51;25.70;61.20
13998;DHT22;7074;51.508;7.018;2023-07-02T13:33:18;25.60;60.00
13998;DHT22;7074;51.508;7.018;2023-07-02T13:35:45;25.60;60.70
13998;DHT22;7074;51.508;7.018;2023-07-02T13:38:12;25.70;60.70
13998;DHT22;7074;51.508;7.018;2023-07-02T13:40:55;25.50;59.60
13998;DHT22;7074;51.508;7.018;2023-07-02T13:43:22;25.60;61.00
13998;DHT22;7074;51.508;7.018;2023-07-02T13:45:50;25.50;61.30
13998;DHT22;7074;51.508;7.018;2023-07-02T13:48:17;25.30;61.80
13998;DHT22;7074;51.508;7.018;2023-07-02T13:50:45;25.40;61.00
13998;DHT22;7074;51.508;7.018;2023-07-02T13:53:12;25.50;61.80
13998;DHT22;7074;51.508;7.018;2023-07-02T13:55:39;25.70;62.60
13998;DHT22;7074;51.508;7.018;2023-07-02T13:58:08;25.50;62.40
13998;DHT22;7074;51.508;7.018;2023-07-02T14:00:37;25.50;62.40
13998;DHT22;7074;51.508;7.018;2023-07-02T14:03:06;26.00;62.90
13998;DHT22;7074;51.508;7.018;2023-07-02T14:05:33;26.10;61.90
13998;DHT22;7074;51.508;7.018;2023-07-02T14:08:00;25.70;61.40
13998;DHT22;7074;51.508;7.018;2023-07-02T14:10:29;25.60;62.00
13998;DHT22;7074;51.508;7.018;2023-07-02T14:12:58;25.50;62.40
13998;DHT22;7074;51.508;7.018;2023-07-02T14:15:25;25.40;63.60
13998;DHT22;7074;51.508;7.018;2023-07-02T14:17:58;25.30;63.00
13998;DHT22;7074;51.508;7.018;2023-07-02T14:20:26;25.10;63.90
13998;DHT22;7074;51.508;7.018;2023-07-02T14:22:53;24.80;63.80
13998;DHT22;7074;51.508;7.018;2023-07-02T14:25:20;25.00;65.10
13998;DHT22;7074;51.508;7.018;2023-07-02T14:27:48;25.20;64.00
13998;DHT22;7074;51.508;7.018;2023-07-02T14:30:15;25.40;63.50
13998;DHT22;7074;51.508;7.018;2023-07-02T14:35:59;25.30;63.90
13998;DHT22;7074;51.508;7.018;2023-07-02T14:38:26;25.20;64.00
13998;DHT22;7074;51.508;7.018;2023-07-02T14:40:55;25.40;65.20
13998;DHT22;7074;51.508;7.018;2023-07-02T14:43:24;25.20;64.00
13998;DHT22;7074;51.508;7.018;2023-07-02T14:45:53;25.30;65.10
13998;DHT22;7074;51.508;7.018;2023-07-02T14:48:21;25.20;64.40
13998;DHT22;7074;51.508;7.018;2023-07-02T14:50:50;25.40;65.20
13998;DHT22;7074;51.508;7.018;2023-07-02T14:53:20;25.40;65.20
13998;DHT22;7074;51.508;7.018;2023-07-02T14:55:47;25.40;65.20
13998;DHT22;7074;51.508;7.018;2023-07-02T14:58:16;25.20;65.10
13998;DHT22;7074;51.508;7.018;2023-07-02T15:00:47;25.30;63.80
13998;DHT22;7074;51.508;7.018;2023-07-02T15:03:15;25.50;63.40
13998;DHT22;7074;51.508;7.018;2023-07-02T15:05:44;25.70;62.30
13998;DHT22;7074;51.508;7.018;2023-07-02T15:08:15;25.90;62.10
13998;DHT22;7074;51.508;7.018;2023-07-02T15:10:54;26.00;62.30
13998;DHT22;7074;51.508;7.018;2023-07-02T15:13:38;26.10;60.90
13998;DHT22;7074;51.508;7.018;2023-07-02T15:16:09;26.10;61.60
13998;DHT22;7074;51.508;7.018;2023-07-02T15:18:36;25.60;61.90
13998;DHT22;7074;51.508;7.018;2023-07-02T15:21:04;25.50;62.70
13998;DHT22;7074;51.508;7.018;2023-07-02T15:23:32;25.70;62.80
13998;DHT22;7074;51.508;7.018;2023-07-02T15:26:02;25.70;61.80
13998;DHT22;7074;51.508;7.018;2023-07-02T15:28:30;25.70;61.30
13998;DHT22;7074;51.508;7.018;2023-07-02T15:30:59;25.60;61.90
13998;DHT22;7074;51.508;7.018;2023-07-02T15:33:26;25.40;62.80
13998;DHT22;7074;51.508;7.018;2023-07-02T15:35:53;25.50;62.70
13998;DHT22;7074;51.508;7.018;2023-07-02T15:38:21;25.70;61.40
13998;DHT22;7074;51.508;7.018;2023-07-02T15:40:49;25.70;60.60
13998;DHT22;7074;51.508;7.018;2023-07-02T15:43:17;25.50;61.40
13998;DHT22;7074;51.508;7.018;2023-07-02T15:45:45;25.40;61.60
13998;DHT22;7074;51.508;7.018;2023-07-02T15:48:12;25.50;60.60
13998;DHT22;7074;51.508;7.018;2023-07-02T15:50:40;25.50;60.00
13998;DHT22;7074;51.508;7.018;2023-07-02T15:53:07;25.70;59.40
13998;DHT22;7074;51.508;7.018;2023-07-02T15:55:34;25.60;59.00
13998;DHT22;7074;51.508;7.018;2023-07-02T15:58:02;25.40;59.20
13998;DHT22;7074;51.508;7.018;2023-07-02T16:00:31;25.30;59.80
13998;DHT22;7074;51.508;7.018;2023-07-02T16:02:58;25.30;60.20